Time;durP1;ratioP1;P1;durP2;ratioP2;P2;SDS_P1;SDS_P2;PMS_P1;PMS_P2;Temp;Humidity;BMP_temperature;BMP_pressure;BME280_temperature;BME280_humidity;BME280_pressure;Samples;Min_cycle;Max_cycle;Signal;HPM_P1;HPM_P2
2021/01/05 00:01:35;;;;;;;44.38;20.80;;;;;;;3.65;90.64;100269.56;1744362;81;25950;-60
2021/01/05 00:04:04;;;;;;;43.05;21.07;;;;;;;3.64;90.62;100262.05;1746325;81;26442;-52
2021/01/05 00:06:32;;;;;;;45.20;22.70;;;;;;;3.65;90.63;100264.22;1752116;81;25905;-53
2021/01/05 00:08:59;;;;;;;45.58;22.30;;;;;;;3.62;90.55;100260.72;1750978;81;25890;-59
2021/01/05 00:11:26;;;;;;;44.60;21.87;;;;;;;3.64;90.64;100259.92;1756507;81;25742;-58
2021/01/05 00:13:53;;;;;;;40.88;21.62;;;;;;;3.64;90.68;100259.38;1755079;81;25975;-61
2021/01/05 00:16:20;;;;;;;48.58;24.30;;;;;;;3.65;90.64;100261.00;1748723;81;26160;-59
2021/01/05 00:18:47;;;;;;;42.20;20.27;;;;;;;3.67;90.68;100256.72;1748760;81;26448;-60
2021/01/05 00:21:14;;;;;;;43.65;21.55;;;;;;;3.66;90.64;100255.10;1757410;78;33130;-62
2021/01/05 00:23:40;;;;;;;39.35;19.37;;;;;;;3.65;90.59;100249.50;1801818;78;26360;-59
2021/01/05 00:26:07;;;;;;;39.10;20.95;;;;;;;3.64;90.65;100247.88;1770487;79;27448;-56
2021/01/05 00:28:34;;;;;;;42.60;20.75;;;;;;;3.64;90.68;100255.37;1766868;79;26213;-59
2021/01/05 00:31:01;;;;;;;45.40;21.45;;;;;;;3.64;90.71;100251.89;1798561;78;25566;-64
2021/01/05 00:33:28;;;;;;;41.95;20.17;;;;;;;3.65;90.73;100246.83;1767264;79;26534;-62
2021/01/05 00:35:55;;;;;;;40.78;20.02;;;;;;;3.65;90.76;100242.81;1795013;78;26331;-61
2021/01/05 00:38:21;;;;;;;48.52;21.57;;;;;;;3.65;90.75;100248.96;1796921;78;26034;-63
2021/01/05 00:40:48;;;;;;;40.33;21.15;;;;;;;3.64;90.78;100244.66;1797847;78;25972;-63
2021/01/05 00:43:15;;;;;;;41.23;20.27;;;;;;;3.64;90.76;100247.34;1801664;78;25873;-64
2021/01/05 00:45:42;;;;;;;43.02;20.05;;;;;;;3.65;90.82;100248.16;1759380;80;26151;-63
2021/01/05 00:48:12;;;;;;;37.25;19.00;;;;;;;3.66;90.86;100240.39;1801329;78;25691;-60
2021/01/05 00:50:40;;;;;;;41.35;19.98;;;;;;;3.64;90.82;100236.64;1785643;78;26350;-64
2021/01/05 00:53:07;;;;;;;38.17;20.35;;;;;;;3.65;90.82;100236.92;1764260;79;25962;-61
2021/01/05 00:55:34;;;;;;;41.55;21.30;;;;;;;3.64;90.81;100237.98;1778526;79;25497;-57
2021/01/05 00:58:01;;;;;;;39.25;19.65;;;;;;;3.65;90.86;100238.80;1792778;78;26375;-61
2021/01/05 01:00:28;;;;;;;38.42;19.10;;;;;;;3.64;90.84;100239.31;1803484;78;25717;-62
2021/01/05 01:02:55;;;;;;;40.15;19.73;;;;;;;3.65;90.88;100240.14;1767016;79;25706;-65
2021/01/05 01:05:22;;;;;;;42.55;20.95;;;;;;;3.63;90.89;100235.05;1799860;78;25908;-60
2021/01/05 01:07:49;;;;;;;38.30;19.65;;;;;;;3.64;90.93;100232.63;1802133;78;25631;-64
2021/01/05 01:10:17;;;;;;;40.12;20.45;;;;;;;3.63;90.91;100229.70;1762328;79;25823;-66
2021/01/05 01:12:44;;;;;;;37.23;19.55;;;;;;;3.63;90.94;100224.35;1802290;78;26043;-66
2021/01/05 01:15:13;;;;;;;42.25;21.50;;;;;;;3.63;90.95;100226.23;1806429;78;26697;-66
2021/01/05 01:17:40;;;;;;;40.53;20.77;;;;;;;3.64;90.99;100223.27;1774878;79;25819;-65
2021/01/05 01:20:08;;;;;;;40.35;20.15;;;;;;;3.64;91.00;100220.59;1770035;79;25914;-64
2021/01/05 01:22:35;;;;;;;43.67;20.30;;;;;;;3.64;91.07;100215.23;1774551;79;39528;-56
2021/01/05 01:25:04;;;;;;;35.65;19.02;;;;;;;3.66;91.08;100212.30;1777434;79;25756;-64
2021/01/05 01:27:30;;;;;;;38.10;19.23;;;;;;;3.65;91.07;100206.16;1795841;78;25779;-63
2021/01/05 01:29:57;;;;;;;40.88;21.07;;;;;;;3.65;91.07;100206.16;1766009;79;25777;-64
2021/01/05 01:32:24;;;;;;;43.68;20.02;;;;;;;3.66;91.05;100202.94;1775235;79;25888;-63
2021/01/05 01:34:51;;;;;;;40.45;19.98;;;;;;;3.65;91.10;100205.37;1792359;78;25798;-66
2021/01/05 01:37:19;;;;;;;42.95;20.45;;;;;;;3.66;91.18;100197.08;1768359;79;25676;-65
2021/01/05 01:39:48;;;;;;;44.42;20.52;;;;;;;3.66;91.23;100206.44;1802911;78;25694;-61
2021/01/05 01:42:19;;;;;;;38.88;19.20;;;;;;;3.67;91.20;100201.34;1768669;79;25698;-64
2021/01/05 01:44:48;;;;;;;43.20;20.90;;;;;;;3.68;91.25;100200.83;1770212;79;25784;-66
2021/01/05 01:47:29;;;;;;;41.98;19.87;;;;;;;3.68;91.26;100204.30;1790875;78;26753;-62
2021/01/05 01:50:14;;;;;;;45.35;20.85;;;;;;;3.69;91.31;100203.75;1796309;78;25691;-53
2021/01/05 01:53:21;;;;;;;45.85;20.55;;;;;;;3.68;91.35;100194.94;1801212;78;25909;-56
2021/01/05 01:56:27;;;;;;;41.28;20.52;;;;;;;3.70;91.38;100195.47;1794237;78;25811;-60
2021/01/05 01:59:02;;;;;;;45.03;20.30;;;;;;;3.71;91.44;100193.08;1789053;78;26282;-55
2021/01/05 02:01:59;;;;;;;48.25;20.92;;;;;;;3.71;91.40;100198.94;1792872;78;25713;-52
2021/01/05 02:05:00;;;;;;;43.15;21.05;;;;;;;3.71;91.48;100192.25;1745501;79;25772;-53
2021/01/05 02:08:06;;;;;;;50.33;22.35;;;;;;;3.72;91.49;100189.86;1773340;79;26766;-55
2021/01/05 02:10:56;;;;;;;44.25;20.80;;;;;;;3.72;91.58;100186.64;1771027;79;25764;-57
2021/01/05 02:13:53;;;;;;;40.30;19.35;;;;;;;3.72;91.62;100179.16;1793296;78;25681;-55
2021/01/05 02:16:50;;;;;;;43.55;21.40;;;;;;;3.74;91.63;100175.13;1791933;78;26263;-56
2021/01/05 02:19:35;;;;;;;53.65;23.92;;;;;;;3.76;91.66;100176.20;1816220;78;25251;-56
2021/01/05 02:22:26;;;;;;;43.95;21.40;;;;;;;3.77;91.69;100173.02;1807996;78;27250;-56
2021/01/05 02:25:07;;;;;;;42.48;20.50;;;;;;;3.78;91.70;100175.43;1810021;78;25736;-56
2021/01/05 02:27:39;;;;;;;49.60;21.20;;;;;;;3.79;91.72;100175.68;1799269;78;25705;-55
2021/01/05 02:30:10;;;;;;;43.63;19.23;;;;;;;3.80;91.75;100173.28;1772197;79;25772;-59
2021/01/05 02:32:42;;;;;;;46.50;21.30;;;;;;;3.82;91.77;100160.98;1775632;79;25736;-56
2021/01/05 02:35:51;;;;;;;47.62;19.82;;;;;;;3.84;91.78;100161.51;1769618;79;26185;-56
2021/01/05 02:38:48;;;;;;;27.07;13.62;;;;;;;3.86;91.78;100155.34;1770647;79;25732;-55
2021/01/05 02:41:46;;;;;;;39.03;17.87;;;;;;;3.85;91.75;100159.11;1771648;79;25848;-54
2021/01/05 02:44:27;;;;;;;39.70;18.48;;;;;;;3.86;91.73;100154.01;1772972;79;25642;-53
2021/01/05 02:47:47;;;;;;;35.52;17.90;;;;;;;3.92;91.77;100151.61;1882492;75;34736;-57
2021/01/05 02:50:42;;;;;;;36.35;17.25;;;;;;;3.86;91.78;100141.97;1849084;77;26371;-56
2021/01/05 02:53:41;;;;;;;30.12;16.80;;;;;;;3.87;91.81;100139.57;1842065;77;26241;-58
2021/01/05 02:56:24;;;;;;;;;;;;;;;3.88;91.85;100141.16;1857994;77;26379;-56
2021/01/05 02:59:18;;;;;;;33.23;15.65;;;;;;;3.89;91.85;100131.53;1846851;77;26359;-54
2021/01/05 03:02:24;;;;;;;33.08;17.20;;;;;;;3.88;91.83;100125.11;1853419;77;25551;-55
2021/01/05 03:04:51;;;;;;;31.27;15.55;;;;;;;3.89;91.87;100120.03;1813696;77;25680;-53
2021/01/05 03:07:23;;;;;;;36.30;16.52;;;;;;;3.89;91.78;100114.68;1850503;77;26202;-56
2021/01/05 03:10:04;;;;;;;31.75;15.50;;;;;;;3.88;91.83;100110.39;1851962;77;25674;-55
2021/01/05 03:13:05;;;;;;;35.48;17.00;;;;;;;3.90;91.83;100110.95;1850982;77;25703;-49
2021/01/05 03:15:52;;;;;;;32.17;17.30;;;;;;;3.92;91.84;100114.15;1854146;76;25708;-57
2021/01/05 03:18:24;;;;;;;32.75;16.30;;;;;;;3.91;91.83;100106.63;1846086;77;26141;-58
2021/01/05 03:20:56;;;;;;;32.30;15.78;;;;;;;3.89;91.82;100106.11;1849790;77;26663;-52
2021/01/05 03:23:25;;;;;;;30.77;14.70;;;;;;;3.89;91.85;100106.66;1847008;77;26308;-58
2021/01/05 03:25:54;;;;;;;31.03;15.23;;;;;;;3.89;91.83;100099.96;1852611;77;25632;-57
2021/01/05 03:28:26;;;;;;;36.83;16.85;;;;;;;3.89;91.86;100097.28;1851861;77;25646;-58
2021/01/05 03:31:13;;;;;;;33.48;16.45;;;;;;;3.89;91.88;100086.03;1850387;77;25707;-57
2021/01/05 03:33:39;;;;;;;34.30;16.82;;;;;;;3.89;91.91;100092.73;1813997;77;26272;-58
2021/01/05 03:36:07;;;;;;;26.75;13.80;;;;;;;3.90;91.89;100086.86;1849907;77;25644;-59
2021/01/05 03:38:34;;;;;;;28.50;14.15;;;;;;;3.90;91.91;100083.64;1849606;77;26010;-57
2021/01/05 03:41:00;;;;;;;27.48;13.75;;;;;;;3.91;91.92;100080.42;1848186;77;25676;-57
2021/01/05 03:43:27;;;;;;;30.25;13.05;;;;;;;3.90;91.90;100072.14;1850269;77;26255;-56
2021/01/05 03:45:54;;;;;;;27.27;14.13;;;;;;;3.90;91.91;100076.95;1845200;76;25796;-56
2021/01/05 03:48:21;;;;;;;27.95;14.03;;;;;;;3.91;91.90;100068.38;1839641;77;25729;-58
2021/01/05 03:50:48;;;;;;;26.30;14.05;;;;;;;3.92;91.94;100067.31;1834727;77;25865;-57
2021/01/05 03:53:15;;;;;;;23.47;12.60;;;;;;;3.91;91.90;100069.72;1836976;77;25665;-58
2021/01/05 03:55:42;;;;;;;23.87;12.78;;;;;;;3.91;91.89;100063.82;1834275;77;25621;-58
2021/01/05 03:58:09;;;;;;;20.27;11.63;;;;;;;3.92;91.95;100063.30;1834189;77;25976;-57
2021/01/05 04:00:36;;;;;;;20.12;11.48;;;;;;;3.92;91.94;100061.97;1835265;77;26166;-55
2021/01/05 04:03:03;;;;;;;17.95;10.35;;;;;;;3.92;91.92;100060.63;1835093;77;25669;-57
2021/01/05 04:05:30;;;;;;;24.60;11.30;;;;;;;3.92;91.92;100057.41;1835031;77;25652;-58
2021/01/05 04:07:57;;;;;;;21.68;10.68;;;;;;;3.93;91.91;100059.53;1840194;77;25684;-56
2021/01/05 04:10:24;;;;;;;18.23;10.30;;;;;;;3.95;91.92;100064.63;1832201;77;25722;-56
2021/01/05 04:12:51;;;;;;;15.40;9.15;;;;;;;3.95;91.90;100060.09;1840000;77;25628;-57
2021/01/05 04:15:25;;;;;;;19.35;9.55;;;;;;;3.95;91.92;100057.94;1833386;77;26209;-57
2021/01/05 04:17:53;;;;;;;16.73;9.33;;;;;;;3.95;91.87;100060.61;1836151;77;25894;-58
2021/01/05 04:20:22;;;;;;;15.30;8.85;;;;;;;3.95;91.85;100061.95;1792017;79;25643;-57
2021/01/05 04:22:49;;;;;;;15.27;8.67;;;;;;;3.96;91.87;100058.21;1765965;80;26151;-57
2021/01/05 04:25:19;;;;;;;17.12;8.50;;;;;;;3.95;91.85;100065.45;1762328;80;25614;-58
2021/01/05 04:27:49;;;;;;;14.10;8.15;;;;;;;3.95;91.85;100057.42;1767380;80;25774;-57
2021/01/05 04:30:30;;;;;;;13.62;7.95;;;;;;;3.97;91.86;100061.13;1766707;80;25746;-58
2021/01/05 04:33:07;;;;;;;14.23;7.45;;;;;;;3.95;91.82;100052.06;1761369;80;25644;-57
2021/01/05 04:35:34;;;;;;;12.33;7.20;;;;;;;3.96;91.84;100052.31;1762027;80;25691;-57
2021/01/05 04:38:01;;;;;;;14.63;7.70;;;;;;;3.97;91.89;100049.91;1765029;80;25864;-57
2021/01/05 04:40:36;;;;;;;13.28;7.28;;;;;;;3.96;91.82;100052.86;1763616;80;25685;-58
2021/01/05 04:43:23;;;;;;;11.60;7.10;;;;;;;3.95;91.86;100049.39;1758867;80;25891;-57
2021/01/05 04:46:20;;;;;;;18.07;8.00;;;;;;;3.95;91.84;100052.06;1766888;80;25772;-56
2021/01/05 04:48:58;;;;;;;12.35;7.67;;;;;;;3.94;91.87;100050.45;1778993;80;25723;-56
2021/01/05 04:51:58;;;;;;;17.00;8.75;;;;;;;3.94;91.88;100054.47;1782248;79;26011;-55
2021/01/05 04:54:30;;;;;;;13.15;7.87;;;;;;;3.95;91.91;100044.55;1779793;80;25733;-54
2021/01/05 04:57:20;;;;;;;15.05;8.13;;;;;;;3.93;91.97;100045.64;1777890;80;25718;-50
2021/01/05 05:00:17;;;;;;;14.83;7.45;;;;;;;3.96;92.02;100048.84;1778365;80;25669;-52
2021/01/05 05:03:07;;;;;;;14.20;7.67;;;;;;;3.97;92.05;100046.41;1776683;80;26333;-55
2021/01/05 05:05:56;;;;;;;15.13;8.28;;;;;;;3.96;92.03;100042.95;1783843;80;26266;-55
2021/01/05 05:08:49;;;;;;;14.20;7.40;;;;;;;3.96;92.01;100048.84;1778568;80;25750;-56
2021/01/05 05:11:19;;;;;;;11.90;7.40;;;;;;;3.96;92.00;100039.48;1757793;80;25707;-49
2021/01/05 05:14:00;;;;;;;13.53;7.55;;;;;;;3.95;92.05;100037.34;1780991;79;25617;-51
2021/01/05 05:17:22;;;;;;;10.93;6.65;;;;;;;3.99;92.07;100031.70;1794393;78;34662;-58
2021/01/05 05:20:42;;;;;;;11.70;6.28;;;;;;;4.04;92.11;100034.37;1862098;75;34762;-55
2021/01/05 05:23:55;;;;;;;8.95;5.75;;;;;;;3.98;92.10;100028.75;1774131;80;26037;-56
2021/01/05 05:26:56;;;;;;;10.72;5.90;;;;;;;3.99;92.21;100022.88;1838841;76;26402;-57
2021/01/05 05:29:49;;;;;;;10.30;5.70;;;;;;;3.99;92.12;100026.35;1828592;76;25818;-55
2021/01/05 05:32:40;;;;;;;9.98;5.58;;;;;;;4.00;92.11;100027.14;1814771;76;25667;-55
2021/01/05 05:35:41;;;;;;;9.50;5.42;;;;;;;4.01;92.11;100024.75;1835235;76;26352;-55
2021/01/05 05:38:32;;;;;;;10.90;5.83;;;;;;;4.01;92.07;100018.84;1828930;76;25980;-51
2021/01/05 05:41:16;;;;;;;9.35;5.80;;;;;;;4.01;92.08;100012.16;1839642;76;26061;-56
2021/01/05 05:44:00;;;;;;;8.40;5.35;;;;;;;4.01;92.02;100016.72;1833900;76;25926;-54
2021/01/05 05:46:43;;;;;;;7.95;5.35;;;;;;;4.01;92.03;100008.14;1828897;76;25876;-56
2021/01/05 05:49:30;;;;;;;7.08;4.92;;;;;;;4.02;92.03;100007.59;1827645;76;26400;-54
2021/01/05 05:52:00;;;;;;;7.35;4.70;;;;;;;4.01;92.01;100007.34;1828672;76;25639;-58
2021/01/05 05:54:27;;;;;;;9.88;4.83;;;;;;;4.01;92.03;100005.47;1833615;76;25676;-57
2021/01/05 05:57:13;;;;;;;8.63;5.85;;;;;;;4.02;91.99;99990.20;1823281;78;25781;-55
2021/01/05 05:59:46;;;;;;;7.15;4.80;;;;;;;4.02;91.99;99997.72;1829858;76;25559;-56
2021/01/05 06:02:17;;;;;;;7.67;4.42;;;;;;;4.02;92.00;99995.03;1825707;76;25609;-56
2021/01/05 06:04:44;;;;;;;8.40;5.00;;;;;;;4.02;91.95;99996.89;1834458;76;25777;-56
2021/01/05 06:07:11;;;;;;;7.03;4.40;;;;;;;4.01;91.97;99993.42;1841379;76;25681;-57
2021/01/05 06:09:38;;;;;;;7.70;4.72;;;;;;;4.01;91.93;99981.92;1822930;78;26386;-56
2021/01/05 06:12:07;;;;;;;5.92;3.98;;;;;;;4.01;91.94;99981.38;1825822;76;25724;-55
2021/01/05 06:14:34;;;;;;;6.22;4.10;;;;;;;4.02;91.96;99987.01;1830540;76;25684;-54
2021/01/05 06:17:00;;;;;;;5.75;3.90;;;;;;;4.02;91.93;99992.36;1834382;76;25728;-54
2021/01/05 06:19:27;;;;;;;7.60;4.80;;;;;;;4.02;91.87;99988.34;1828821;76;25955;-55
2021/01/05 06:21:54;;;;;;;6.15;3.90;;;;;;;4.01;91.89;99981.92;1844007;76;25591;-56
2021/01/05 06:24:21;;;;;;;7.25;4.40;;;;;;;4.02;91.86;99987.01;1853400;76;25636;-55
2021/01/05 06:26:47;;;;;;;7.53;4.92;;;;;;;4.01;91.85;99984.60;1842574;76;26055;-55
2021/01/05 06:29:14;;;;;;;6.55;4.58;;;;;;;4.00;91.84;99986.48;1832151;76;25652;-53
2021/01/05 06:31:41;;;;;;;5.08;3.58;;;;;;;4.00;91.83;99983.81;1832400;76;25755;-56
2021/01/05 06:34:07;;;;;;;5.95;3.58;;;;;;;3.99;91.82;99979.52;1845256;76;26375;-54
2021/01/05 06:36:34;;;;;;;5.47;4.17;;;;;;;3.99;91.82;99974.71;1835872;76;25909;-57
2021/01/05 06:39:01;;;;;;;5.33;3.90;;;;;;;3.99;91.81;99966.69;1831573;76;25644;-56
2021/01/05 06:41:27;;;;;;;5.92;3.60;;;;;;;3.98;91.74;99969.08;1844774;76;25630;-57
2021/01/05 06:43:54;;;;;;;4.53;3.22;;;;;;;3.97;91.80;99971.48;1837790;76;26206;-54
2021/01/05 06:46:21;;;;;;;4.33;3.08;;;;;;;3.99;91.81;99968.02;1831455;76;25660;-54
2021/01/05 06:48:48;;;;;;;3.83;3.40;;;;;;;3.97;91.68;99968.29;1839970;76;25783;-53
2021/01/05 06:51:15;;;;;;;4.97;3.33;;;;;;;3.95;91.63;99969.11;1833169;76;25712;-55
2021/01/05 06:53:41;;;;;;;3.92;3.10;;;;;;;3.93;91.63;99963.20;1842255;76;25711;-54
2021/01/05 06:56:15;;;;;;;4.15;2.67;;;;;;;3.93;91.67;99965.36;1840379;76;26663;-55
2021/01/05 06:58:44;;;;;;;5.60;2.77;;;;;;;3.91;91.61;99968.83;1837360;76;25611;-56
2021/01/05 07:01:11;;;;;;;4.60;3.12;;;;;;;3.90;91.61;99968.58;1825817;78;25633;-54
2021/01/05 07:03:38;;;;;;;3.83;3.00;;;;;;;3.89;91.61;99974.98;1837453;76;25724;-55
2021/01/05 07:06:05;;;;;;;3.70;2.70;;;;;;;3.88;91.65;99968.56;1847358;76;26213;-56
2021/01/05 07:08:32;;;;;;;2.98;2.33;;;;;;;3.88;91.66;99968.56;1840595;76;27125;-53
2021/01/05 07:10:58;;;;;;;3.98;1.92;;;;;;;3.85;91.52;99965.91;1842646;76;26380;-55
2021/01/05 07:13:25;;;;;;;2.30;1.87;;;;;;;3.82;91.42;99961.10;1836919;76;25681;-54
2021/01/05 07:15:54;;;;;;;3.05;2.17;;;;;;;3.80;91.43;99961.91;1841337;76;25690;-53
2021/01/05 07:18:20;;;;;;;3.85;2.50;;;;;;;3.80;91.49;99955.23;1832220;76;25341;-55
2021/01/05 07:20:47;;;;;;;4.42;2.80;;;;;;;3.80;91.54;99951.73;1837963;77;26209;-55
2021/01/05 07:23:14;;;;;;;2.98;2.22;;;;;;;3.78;91.47;99948.02;1833568;77;25674;-53
2021/01/05 07:25:41;;;;;;;5.87;2.98;;;;;;;3.79;91.47;99951.48;1822961;78;25637;-54
2021/01/05 07:28:07;;;;;;;3.17;2.05;;;;;;;3.78;91.44;99952.55;1832900;77;25683;-53
2021/01/05 07:30:35;;;;;;;2.75;2.22;;;;;;;3.74;91.29;99954.42;1833692;77;25688;-53
2021/01/05 07:33:02;;;;;;;4.35;2.83;;;;;;;3.70;91.17;99958.72;1832859;77;26220;-52
2021/01/05 07:35:29;;;;;;;7.53;3.27;;;;;;;3.69;91.23;99949.08;1822419;78;25779;-54
2021/01/05 07:37:55;;;;;;;3.08;1.80;;;;;;;3.67;91.28;99953.91;1838953;77;25592;-53
2021/01/05 08:03:51;;;;;;;3.00;2.50;;;;;;;3.19;92.01;99937.41;1852628;75;34962;-50
2021/01/05 08:06:18;;;;;;;3.37;2.60;;;;;;;3.07;92.10;99935.00;1828114;77;25721;-53
2021/01/05 08:08:45;;;;;;;3.95;2.33;;;;;;;3.03;92.17;99931.27;1840995;76;26387;-56
2021/01/05 08:11:11;;;;;;;3.55;2.20;;;;;;;3.01;92.13;99921.36;1852623;76;25808;-59
2021/01/05 08:13:38;;;;;;;8.43;4.42;;;;;;;2.98;92.05;99933.94;1832908;76;25684;-57
2021/01/05 08:16:05;;;;;;;7.58;3.80;;;;;;;2.96;92.01;99929.38;1841060;76;26340;-59
2021/01/05 08:18:32;;;;;;;11.53;6.20;;;;;;;2.96;91.92;99928.04;1842461;76;25712;-57
2021/01/05 08:20:58;;;;;;;11.28;5.60;;;;;;;2.96;91.85;99928.04;1834801;76;25982;-53
2021/01/05 08:23:25;;;;;;;6.47;3.70;;;;;;;2.97;91.87;99929.11;1849297;76;25691;-57
2021/01/05 08:25:52;;;;;;;5.20;3.02;;;;;;;2.96;91.67;99931.53;1836934;76;25699;-59
2021/01/05 08:28:19;;;;;;;9.33;5.10;;;;;;;2.96;91.58;99924.86;1844657;76;25662;-59
2021/01/05 08:30:45;;;;;;;4.78;2.77;;;;;;;2.96;91.56;99919.52;1840821;76;26256;-56
2021/01/05 08:33:14;;;;;;;3.47;2.62;;;;;;;2.96;91.37;99926.70;1839090;76;27132;-58
2021/01/05 08:35:41;;;;;;;4.25;3.00;;;;;;;2.96;91.29;99916.02;1840613;76;25634;-56
2021/01/05 08:38:09;;;;;;;5.90;2.90;;;;;;;2.93;91.15;99912.56;1843391;76;25701;-56
2021/01/05 08:40:36;;;;;;;4.75;2.77;;;;;;;2.90;91.05;99911.22;1845175;76;25658;-55
2021/01/05 08:43:09;;;;;;;5.12;2.85;;;;;;;2.89;91.04;99908.81;1792917;77;25803;-53
2021/01/05 08:45:39;;;;;;;2.17;1.72;;;;;;;2.90;91.20;99907.75;1793179;79;26674;-57
2021/01/05 08:48:08;;;;;;;2.95;1.92;;;;;;;2.89;91.11;99902.13;1775634;79;25839;-56
2021/01/05 08:50:35;;;;;;;2.20;1.62;;;;;;;2.87;90.91;99894.92;1780857;80;26105;-57
2021/01/05 08:53:09;;;;;;;4.05;2.22;;;;;;;2.87;90.83;99896.26;1788000;79;25518;-56
2021/01/05 08:55:41;;;;;;;2.98;1.82;;;;;;;2.85;90.80;99895.73;1785321;79;25736;-57
2021/01/05 08:58:10;;;;;;;2.45;1.40;;;;;;;2.84;90.77;99891.45;1784428;79;26760;-52
2021/01/05 09:00:36;;;;;;;2.92;1.50;;;;;;;2.80;90.55;99889.84;1782918;79;25876;-56
2021/01/05 09:03:05;;;;;;;1.95;1.50;;;;;;;2.77;90.48;99898.38;1773967;79;25740;-55
2021/01/05 09:05:31;;;;;;;2.12;1.55;;;;;;;2.74;90.46;99889.05;1763116;80;25990;-54
2021/01/05 09:07:58;;;;;;;3.27;1.98;;;;;;;2.73;90.59;99886.10;1765262;80;25753;-56
2021/01/05 09:10:26;;;;;;;2.75;1.75;;;;;;;2.72;90.56;99880.48;1764858;80;26240;-57
2021/01/05 09:12:55;;;;;;;2.12;1.62;;;;;;;2.68;90.46;99875.95;1773152;80;27132;-53
2021/01/05 09:15:23;;;;;;;1.65;1.47;;;;;;;2.68;90.46;99875.95;1763238;80;26001;-57
2021/01/05 09:17:51;;;;;;;2.70;1.82;;;;;;;2.67;90.45;99879.14;1763457;80;25917;-58
2021/01/05 09:20:22;;;;;;;2.65;1.60;;;;;;;2.66;90.42;99872.22;1765734;80;25521;-55
2021/01/05 09:22:49;;;;;;;2.27;1.40;;;;;;;2.63;90.34;99871.95;1765528;80;27897;-57
2021/01/05 09:25:17;;;;;;;4.20;1.87;;;;;;;2.60;90.33;99875.39;1764516;80;26416;-56
2021/01/05 09:27:43;;;;;;;2.92;2.08;;;;;;;2.56;90.18;99878.34;1764595;80;25840;-57
2021/01/05 09:30:17;;;;;;;2.20;1.67;;;;;;;2.56;90.26;99877.55;1762745;80;25654;-58
2021/01/05 09:32:45;;;;;;;2.00;1.77;;;;;;;2.54;90.22;99880.48;1764293;80;25837;-54
2021/01/05 09:35:12;;;;;;;1.47;1.30;;;;;;;2.51;90.03;99868.20;1762167;80;25829;-58
2021/01/05 09:37:43;;;;;;;1.85;1.70;;;;;;;2.46;89.87;99869.53;1766222;79;26049;-52
2021/01/05 09:40:13;;;;;;;2.75;1.67;;;;;;;2.41;89.80;99861.77;1765134;79;25558;-54
2021/01/05 09:42:40;;;;;;;2.80;1.65;;;;;;;2.38;89.91;99859.65;1746912;80;26214;-56
2021/01/05 09:45:09;;;;;;;1.60;1.20;;;;;;;2.35;89.94;99854.01;1736801;82;25766;-55
2021/01/05 09:47:36;;;;;;;1.52;1.20;;;;;;;2.33;89.96;99846.27;1743540;82;25714;-55
2021/01/05 09:50:05;;;;;;;2.45;1.40;;;;;;;2.30;89.94;99845.99;1732531;82;25675;-56
2021/01/05 09:52:36;;;;;;;2.23;2.03;;;;;;;2.29;89.97;99842.53;1736565;82;25839;-59
2021/01/05 09:55:06;;;;;;;3.25;1.80;;;;;;;2.26;89.91;99842.27;1737970;82;26633;-54
2021/01/05 09:57:33;;;;;;;1.90;1.20;;;;;;;2.23;89.90;99823.05;1728892;82;25846;-55
2021/01/05 10:00:00;;;;;;;2.67;1.37;;;;;;;2.20;89.84;99834.25;1730511;82;25727;-56
2021/01/05 10:02:27;;;;;;;2.67;1.32;;;;;;;2.16;89.76;99831.03;1732961;81;26007;-56
2021/01/05 10:04:54;;;;;;;2.75;1.30;;;;;;;2.13;89.78;99822.21;1737677;80;25706;-55
2021/01/05 10:07:21;;;;;;;2.15;1.70;;;;;;;2.10;89.75;99822.77;1736190;81;26212;-57
2021/01/05 10:09:47;;;;;;;1.80;1.47;;;;;;;2.04;89.80;99815.27;1738905;81;26282;-56
2021/01/05 10:12:14;;;;;;;1.70;1.50;;;;;;;2.02;89.94;99812.06;1744056;82;25953;-55
2021/01/05 10:14:41;;;;;;;2.37;1.67;;;;;;;2.00;90.06;99797.66;1744886;81;25917;-56
2021/01/05 10:17:07;;;;;;;1.90;1.70;;;;;;;1.99;90.13;99803.25;1744803;82;25783;-55
2021/01/05 10:19:34;;;;;;;2.15;1.95;;;;;;;1.97;90.14;99804.84;1743694;81;26458;-57
2021/01/05 10:22:01;;;;;;;2.12;1.90;;;;;;;1.98;90.32;99793.66;1750064;81;25737;-58
2021/01/05 10:24:28;;;;;;;2.25;1.90;;;;;;;1.98;90.39;99782.98;1750003;81;27090;-55
2021/01/05 10:26:56;;;;;;;2.47;2.00;;;;;;;1.98;90.51;99781.66;1750226;81;25908;-58
2021/01/05 10:29:24;;;;;;;2.92;2.17;;;;;;;1.98;90.54;99774.98;1751061;80;25654;-56
2021/01/05 10:31:52;;;;;;;2.05;1.80;;;;;;;1.99;90.65;99771.23;1751182;81;25757;-57
2021/01/05 10:34:23;;;;;;;2.62;2.05;;;;;;;2.01;90.68;99769.92;1751182;80;25661;-57
2021/01/05 10:36:57;;;;;;;3.12;2.12;;;;;;;2.03;90.73;99765.66;1751331;80;25974;-57
2021/01/05 10:39:25;;;;;;;3.98;2.30;;;;;;;2.03;90.75;99767.78;1750888;80;25713;-56
2021/01/05 10:41:52;;;;;;;4.15;2.33;;;;;;;2.07;90.92;99762.72;1750915;80;25709;-56
2021/01/05 10:44:21;;;;;;;3.87;2.40;;;;;;;2.10;90.98;99764.07;1750733;80;26326;-57
2021/01/05 10:46:48;;;;;;;2.98;2.37;;;;;;;2.12;91.01;99760.59;1751153;81;25808;-58
2021/01/05 10:49:16;;;;;;;3.20;2.30;;;;;;;2.16;91.00;99753.65;1751151;81;26355;-55
2021/01/05 10:51:52;;;;;;;2.58;2.30;;;;;;;2.17;91.00;99749.38;1750663;81;25709;-56
2021/01/05 10:54:21;;;;;;;3.33;2.42;;;;;;;2.19;91.01;99753.12;1751256;80;25738;-57
2021/01/05 10:57:01;;;;;;;3.33;2.55;;;;;;;2.21;91.05;99743.80;1751047;81;25658;-57
2021/01/05 10:59:29;;;;;;;3.40;2.80;;;;;;;2.23;91.05;99744.84;1751217;80;25686;-57
2021/01/05 11:02:02;;;;;;;4.85;3.20;;;;;;;2.23;91.03;99740.33;1751029;80;26423;-57
2021/01/05 11:04:30;;;;;;;4.92;3.20;;;;;;;2.24;91.06;99731.23;1748761;81;25637;-58
2021/01/05 11:07:01;;;;;;;5.33;3.35;;;;;;;2.27;91.11;99725.91;1748563;82;25743;-56
2021/01/05 11:09:30;;;;;;;4.45;2.65;;;;;;;2.29;91.17;99717.09;1747842;81;25717;-57
2021/01/05 11:11:59;;;;;;;3.80;2.90;;;;;;;2.32;91.20;99721.11;1748363;82;25869;-54
2021/01/05 11:14:26;;;;;;;4.72;3.05;;;;;;;2.31;91.19;99707.48;1748398;82;25876;-57
2021/01/05 11:16:53;;;;;;;3.45;2.75;;;;;;;2.35;91.23;99717.38;1748463;82;26064;-57
2021/01/05 11:19:21;;;;;;;3.87;3.20;;;;;;;2.37;91.26;99711.77;1748178;81;25872;-56
2021/01/05 11:22:03;;;;;;;3.83;2.85;;;;;;;2.38;91.23;99702.67;1748357;81;25721;-57
2021/01/05 11:24:34;;;;;;;4.30;3.17;;;;;;;2.39;91.26;99703.73;1732017;81;25690;-49
2021/01/05 11:27:01;;;;;;;3.52;2.80;;;;;;;2.40;91.29;99692.52;1684396;85;25774;-57
2021/01/05 11:29:28;;;;;;;4.22;3.37;;;;;;;2.43;91.40;99694.14;1656685;86;25658;-56
2021/01/05 11:32:07;;;;;;;3.83;2.80;;;;;;;2.46;91.42;99692.79;1684143;84;26197;-57
2021/01/05 11:34:35;;;;;;;4.25;2.90;;;;;;;2.48;91.45;99681.30;1656777;86;25680;-57
2021/01/05 11:37:09;;;;;;;3.98;3.08;;;;;;;2.51;91.51;99679.98;1684336;84;25666;-55
2021/01/05 11:39:42;;;;;;;2.85;2.55;;;;;;;2.55;91.59;99680.48;1676597;85;26889;-58
2021/01/05 11:42:11;;;;;;;3.87;2.37;;;;;;;2.59;91.63;99677.55;1684161;85;25618;-55
2021/01/05 11:44:41;;;;;;;3.33;3.02;;;;;;;2.60;91.56;99679.67;1684514;84;25751;-58
2021/01/05 11:47:08;;;;;;;;;;;;;;;2.63;91.65;99674.34;1687058;85;25801;-58
2021/01/05 11:49:35;;;;;;;4.60;3.40;;;;;;;2.65;91.67;99670.32;1684381;85;25677;-56
2021/01/05 11:52:02;;;;;;;7.42;3.55;;;;;;;2.68;91.73;99669.78;1684483;85;26406;-57
2021/01/05 11:54:29;;;;;;;3.98;3.33;;;;;;;2.72;91.85;99665.48;1684328;84;26445;-58
2021/01/05 11:56:58;;;;;;;4.53;3.08;;;;;;;2.74;91.85;99664.70;1684609;84;25709;-55
2021/01/05 11:59:25;;;;;;;4.45;3.20;;;;;;;2.79;91.93;99664.69;1702245;83;25768;-53
2021/01/05 12:01:53;;;;;;;3.90;3.50;;;;;;;2.84;92.02;99659.05;1696796;84;25685;-58
2021/01/05 12:04:21;;;;;;;3.27;2.98;;;;;;;2.87;92.02;99660.63;1696906;84;25733;-58
2021/01/05 12:06:53;;;;;;;5.15;3.37;;;;;;;2.91;92.06;99664.38;1696694;84;25896;-58
2021/01/05 12:09:22;;;;;;;4.97;3.80;;;;;;;2.95;92.03;99661.95;1697007;84;25708;-51
2021/01/05 12:12:01;;;;;;;4.97;3.62;;;;;;;2.98;92.05;99658.20;1696721;84;25718;-54
2021/01/05 12:14:29;;;;;;;4.37;3.50;;;;;;;3.03;92.12;99662.73;1697272;84;25703;-59
2021/01/05 12:17:01;;;;;;;6.28;3.65;;;;;;;3.07;92.15;99661.64;1696845;84;27213;-58
2021/01/05 12:19:31;;;;;;;3.92;3.40;;;;;;;3.12;92.17;99668.30;1696904;84;25705;-58
2021/01/05 12:22:01;;;;;;;6.72;3.87;;;;;;;3.15;92.24;99662.38;1696889;84;26126;-61